sensor_id;sensor_type;location;lat;lon;timestamp;temperature;humidity
34776;DHT22;20989;52.566;13.346;2023-05-29T00:02:44;24.30;42.90
34776;DHT22;20989;52.566;13.346;2023-05-29T00:05:45;24.40;42.90
34776;DHT22;20989;52.566;13.346;2023-05-29T00:08:46;24.30;42.90
34776;DHT22;20989;52.566;13.346;2023-05-29T00:11:46;24.40;43.00
34776;DHT22;20989;52.566;13.346;2023-05-29T00:14:51;24.30;42.90
34776;DHT22;20989;52.566;13.346;2023-05-29T00:17:51;24.30;43.00
34776;DHT22;20989;52.566;13.346;2023-05-29T00:20:53;24.30;43.00
34776;DHT22;20989;52.566;13.346;2023-05-29T00:23:53;24.30;43.00
34776;DHT22;20989;52.566;13.346;2023-05-29T00:26:54;24.30;43.10
34776;DHT22;20989;52.566;13.346;2023-05-29T00:29:55;24.30;43.10
34776;DHT22;20989;52.566;13.346;2023-05-29T00:32:55;24.30;43.10
34776;DHT22;20989;52.566;13.346;2023-05-29T00:35:57;24.30;43.10
34776;DHT22;20989;52.566;13.346;2023-05-29T00:38:57;24.30;43.10
34776;DHT22;20989;52.566;13.346;2023-05-29T00:41:58;24.30;43.10
34776;DHT22;20989;52.566;13.346;2023-05-29T00:44:59;24.20;43.10
34776;DHT22;20989;52.566;13.346;2023-05-29T00:47:59;24.20;43.10
34776;DHT22;20989;52.566;13.346;2023-05-29T00:51:00;24.20;43.10
34776;DHT22;20989;52.566;13.346;2023-05-29T00:54:01;24.20;43.10
34776;DHT22;20989;52.566;13.346;2023-05-29T00:57:02;24.20;43.20
34776;DHT22;20989;52.566;13.346;2023-05-29T01:00:06;24.20;43.20
34776;DHT22;20989;52.566;13.346;2023-05-29T01:03:14;24.20;43.20
34776;DHT22;20989;52.566;13.346;2023-05-29T01:06:19;24.20;43.20
34776;DHT22;20989;52.566;13.346;2023-05-29T01:09:21;24.20;43.20
34776;DHT22;20989;52.566;13.346;2023-05-29T01:22:12;24.20;43.30
34776;DHT22;20989;52.566;13.346;2023-05-29T01:28:52;24.20;43.30
34776;DHT22;20989;52.566;13.346;2023-05-29T01:31:53;24.10;43.30
34776;DHT22;20989;52.566;13.346;2023-05-29T01:34:54;24.20;43.40
34776;DHT22;20989;52.566;13.346;2023-05-29T01:37:55;24.20;43.30
34776;DHT22;20989;52.566;13.346;2023-05-29T01:40:56;24.20;43.40
34776;DHT22;20989;52.566;13.346;2023-05-29T01:43:58;24.10;43.40
34776;DHT22;20989;52.566;13.346;2023-05-29T01:46:58;24.10;43.40
34776;DHT22;20989;52.566;13.346;2023-05-29T01:50:00;24.10;43.40
34776;DHT22;20989;52.566;13.346;2023-05-29T01:53:00;24.10;43.50
34776;DHT22;20989;52.566;13.346;2023-05-29T01:56:02;24.10;43.40
34776;DHT22;20989;52.566;13.346;2023-05-29T01:59:03;24.10;43.50
34776;DHT22;20989;52.566;13.346;2023-05-29T02:02:08;24.10;43.50
34776;DHT22;20989;52.566;13.346;2023-05-29T02:05:08;24.10;43.50
34776;DHT22;20989;52.566;13.346;2023-05-29T02:08:09;24.10;43.50
34776;DHT22;20989;52.566;13.346;2023-05-29T02:11:10;24.10;43.50
34776;DHT22;20989;52.566;13.346;2023-05-29T02:14:11;24.10;43.50
34776;DHT22;20989;52.566;13.346;2023-05-29T02:17:12;24.10;43.60
34776;DHT22;20989;52.566;13.346;2023-05-29T02:20:13;24.10;43.50
34776;DHT22;20989;52.566;13.346;2023-05-29T02:23:13;24.10;43.60
34776;DHT22;20989;52.566;13.346;2023-05-29T02:26:15;24.10;43.60
34776;DHT22;20989;52.566;13.346;2023-05-29T02:29:16;24.10;43.60
34776;DHT22;20989;52.566;13.346;2023-05-29T02:32:17;24.00;43.70
34776;DHT22;20989;52.566;13.346;2023-05-29T02:35:17;24.00;43.60
34776;DHT22;20989;52.566;13.346;2023-05-29T02:38:21;24.10;43.80
34776;DHT22;20989;52.566;13.346;2023-05-29T02:41:22;24.00;43.60
34776;DHT22;20989;52.566;13.346;2023-05-29T02:44:22;24.00;43.70
34776;DHT22;20989;52.566;13.346;2023-05-29T02:47:23;24.00;43.70
34776;DHT22;20989;52.566;13.346;2023-05-29T02:50:23;24.00;43.70
34776;DHT22;20989;52.566;13.346;2023-05-29T02:53:24;24.00;43.70
34776;DHT22;20989;52.566;13.346;2023-05-29T02:56:25;24.00;43.80
34776;DHT22;20989;52.566;13.346;2023-05-29T02:59:26;24.00;43.80
34776;DHT22;20989;52.566;13.346;2023-05-29T03:02:27;24.00;43.80
34776;DHT22;20989;52.566;13.346;2023-05-29T03:05:27;24.00;43.80
34776;DHT22;20989;52.566;13.346;2023-05-29T03:08:28;24.00;43.90
34776;DHT22;20989;52.566;13.346;2023-05-29T03:11:28;24.00;43.90
34776;DHT22;20989;52.566;13.346;2023-05-29T03:14:31;24.00;43.90
34776;DHT22;20989;52.566;13.346;2023-05-29T03:17:36;24.00;43.90
34776;DHT22;20989;52.566;13.346;2023-05-29T03:20:38;24.00;43.80
34776;DHT22;20989;52.566;13.346;2023-05-29T03:23:40;24.00;43.90
34776;DHT22;20989;52.566;13.346;2023-05-29T03:26:41;24.00;44.00
34776;DHT22;20989;52.566;13.346;2023-05-29T03:29:41;24.00;43.80
34776;DHT22;20989;52.566;13.346;2023-05-29T03:32:42;24.00;44.00
34776;DHT22;20989;52.566;13.346;2023-05-29T03:35:43;24.00;43.90
34776;DHT22;20989;52.566;13.346;2023-05-29T03:38:43;24.00;43.90
34776;DHT22;20989;52.566;13.346;2023-05-29T03:41:45;24.00;43.90
34776;DHT22;20989;52.566;13.346;2023-05-29T03:44:45;23.90;43.90
34776;DHT22;20989;52.566;13.346;2023-05-29T03:47:46;23.90;43.90
34776;DHT22;20989;52.566;13.346;2023-05-29T03:50:47;23.90;44.00
34776;DHT22;20989;52.566;13.346;2023-05-29T03:53:48;23.90;43.90
34776;DHT22;20989;52.566;13.346;2023-05-29T03:56:48;23.90;44.00
34776;DHT22;20989;52.566;13.346;2023-05-29T04:03:40;23.90;44.10
34776;DHT22;20989;52.566;13.346;2023-05-29T04:06:40;23.90;43.90
34776;DHT22;20989;52.566;13.346;2023-05-29T04:09:41;23.90;44.00
34776;DHT22;20989;52.566;13.346;2023-05-29T04:12:42;23.90;44.10
34776;DHT22;20989;52.566;13.346;2023-05-29T04:15:43;23.90;44.00
34776;DHT22;20989;52.566;13.346;2023-05-29T04:18:43;23.90;44.00
34776;DHT22;20989;52.566;13.346;2023-05-29T04:21:44;23.90;44.00
34776;DHT22;20989;52.566;13.346;2023-05-29T04:24:45;23.90;44.10
34776;DHT22;20989;52.566;13.346;2023-05-29T04:27:45;23.90;44.10
34776;DHT22;20989;52.566;13.346;2023-05-29T04:30:49;23.90;44.10
34776;DHT22;20989;52.566;13.346;2023-05-29T04:33:49;23.90;44.10
34776;DHT22;20989;52.566;13.346;2023-05-29T04:36:54;23.90;44.10
34776;DHT22;20989;52.566;13.346;2023-05-29T04:39:55;23.90;44.00
34776;DHT22;20989;52.566;13.346;2023-05-29T04:42:57;23.90;44.10
34776;DHT22;20989;52.566;13.346;2023-05-29T04:46:00;23.90;44.10
34776;DHT22;20989;52.566;13.346;2023-05-29T04:49:02;23.80;44.00
34776;DHT22;20989;52.566;13.346;2023-05-29T04:52:03;23.90;44.20
34776;DHT22;20989;52.566;13.346;2023-05-29T04:55:05;23.80;44.10
34776;DHT22;20989;52.566;13.346;2023-05-29T04:58:06;23.90;44.20
34776;DHT22;20989;52.566;13.346;2023-05-29T05:01:07;23.90;44.10
34776;DHT22;20989;52.566;13.346;2023-05-29T05:04:09;23.90;44.20
34776;DHT22;20989;52.566;13.346;2023-05-29T05:07:10;23.80;44.10
34776;DHT22;20989;52.566;13.346;2023-05-29T05:10:11;23.90;44.20
34776;DHT22;20989;52.566;13.346;2023-05-29T05:13:12;23.80;44.10
34776;DHT22;20989;52.566;13.346;2023-05-29T05:16:13;23.80;44.10
34776;DHT22;20989;52.566;13.346;2023-05-29T05:19:14;23.80;44.10
34776;DHT22;20989;52.566;13.346;2023-05-29T05:22:14;23.80;44.10
34776;DHT22;20989;52.566;13.346;2023-05-29T05:25:15;23.80;44.10
34776;DHT22;20989;52.566;13.346;2023-05-29T05:28:16;23.80;44.10
34776;DHT22;20989;52.566;13.346;2023-05-29T05:31:16;23.80;44.10
34776;DHT22;20989;52.566;13.346;2023-05-29T05:34:17;23.80;44.20
34776;DHT22;20989;52.566;13.346;2023-05-29T05:37:18;23.90;44.20
34776;DHT22;20989;52.566;13.346;2023-05-29T05:40:18;23.80;44.10
34776;DHT22;20989;52.566;13.346;2023-05-29T05:43:21;23.80;44.10
34776;DHT22;20989;52.566;13.346;2023-05-29T05:46:22;23.80;44.20
34776;DHT22;20989;52.566;13.346;2023-05-29T05:49:23;23.80;44.10
34776;DHT22;20989;52.566;13.346;2023-05-29T05:52:24;23.80;44.20
34776;DHT22;20989;52.566;13.346;2023-05-29T05:55:26;23.80;44.10
34776;DHT22;20989;52.566;13.346;2023-05-29T05:58:28;23.80;44.10
34776;DHT22;20989;52.566;13.346;2023-05-29T06:01:28;23.80;44.10
34776;DHT22;20989;52.566;13.346;2023-05-29T06:04:29;23.80;44.10
34776;DHT22;20989;52.566;13.346;2023-05-29T06:07:30;23.80;44.20
34776;DHT22;20989;52.566;13.346;2023-05-29T06:10:31;23.80;44.20
34776;DHT22;20989;52.566;13.346;2023-05-29T06:13:31;23.70;44.10
34776;DHT22;20989;52.566;13.346;2023-05-29T06:16:32;23.80;44.20
34776;DHT22;20989;52.566;13.346;2023-05-29T06:19:33;23.80;44.20
34776;DHT22;20989;52.566;13.346;2023-05-29T06:22:33;23.80;44.20
34776;DHT22;20989;52.566;13.346;2023-05-29T06:25:34;23.80;44.20
34776;DHT22;20989;52.566;13.346;2023-05-29T06:28:35;23.70;44.10
34776;DHT22;20989;52.566;13.346;2023-05-29T06:31:35;23.70;44.20
34776;DHT22;20989;52.566;13.346;2023-05-29T06:34:36;23.80;44.10
34776;DHT22;20989;52.566;13.346;2023-05-29T06:37:37;23.80;44.20
34776;DHT22;20989;52.566;13.346;2023-05-29T06:40:38;23.70;44.20
34776;DHT22;20989;52.566;13.346;2023-05-29T06:43:38;23.70;44.10
34776;DHT22;20989;52.566;13.346;2023-05-29T06:46:39;23.80;44.20
34776;DHT22;20989;52.566;13.346;2023-05-29T06:49:40;23.80;44.00
34776;DHT22;20989;52.566;13.346;2023-05-29T06:52:40;23.70;44.10
34776;DHT22;20989;52.566;13.346;2023-05-29T06:55:41;23.80;44.10
34776;DHT22;20989;52.566;13.346;2023-05-29T06:58:42;23.70;44.20
34776;DHT22;20989;52.566;13.346;2023-05-29T07:01:42;23.80;44.20
34776;DHT22;20989;52.566;13.346;2023-05-29T07:04:43;23.70;44.00
34776;DHT22;20989;52.566;13.346;2023-05-29T07:07:44;23.70;44.00
34776;DHT22;20989;52.566;13.346;2023-05-29T07:10:44;23.70;44.00
34776;DHT22;20989;52.566;13.346;2023-05-29T07:13:45;23.70;44.10
34776;DHT22;20989;52.566;13.346;2023-05-29T07:16:46;23.70;44.10
34776;DHT22;20989;52.566;13.346;2023-05-29T07:19:47;23.70;44.00
34776;DHT22;20989;52.566;13.346;2023-05-29T07:22:49;23.70;44.00
34776;DHT22;20989;52.566;13.346;2023-05-29T07:25:50;23.70;44.00
34776;DHT22;20989;52.566;13.346;2023-05-29T07:28:51;23.70;44.10
34776;DHT22;20989;52.566;13.346;2023-05-29T07:31:52;23.70;44.00
34776;DHT22;20989;52.566;13.346;2023-05-29T07:34:53;23.70;43.90
34776;DHT22;20989;52.566;13.346;2023-05-29T07:37:53;23.70;44.10
34776;DHT22;20989;52.566;13.346;2023-05-29T07:40:54;23.70;43.90
34776;DHT22;20989;52.566;13.346;2023-05-29T07:43:55;23.70;43.80
34776;DHT22;20989;52.566;13.346;2023-05-29T07:46:56;23.70;43.90
34776;DHT22;20989;52.566;13.346;2023-05-29T07:49:57;23.70;44.00
34776;DHT22;20989;52.566;13.346;2023-05-29T07:52:58;23.70;44.00
34776;DHT22;20989;52.566;13.346;2023-05-29T07:56:00;23.70;43.90
34776;DHT22;20989;52.566;13.346;2023-05-29T07:59:00;23.70;43.90
34776;DHT22;20989;52.566;13.346;2023-05-29T08:02:01;23.70;43.90
34776;DHT22;20989;52.566;13.346;2023-05-29T08:05:04;23.70;43.90
34776;DHT22;20989;52.566;13.346;2023-05-29T08:08:04;23.70;44.10
34776;DHT22;20989;52.566;13.346;2023-05-29T08:11:06;23.70;43.90
34776;DHT22;20989;52.566;13.346;2023-05-29T08:14:07;23.70;43.90
34776;DHT22;20989;52.566;13.346;2023-05-29T08:17:08;23.70;43.80
34776;DHT22;20989;52.566;13.346;2023-05-29T08:20:08;23.70;43.80
34776;DHT22;20989;52.566;13.346;2023-05-29T08:23:10;23.70;44.00
34776;DHT22;20989;52.566;13.346;2023-05-29T08:26:11;23.70;44.00
34776;DHT22;20989;52.566;13.346;2023-05-29T08:29:13;23.70;44.00
34776;DHT22;20989;52.566;13.346;2023-05-29T08:32:14;23.70;43.90
34776;DHT22;20989;52.566;13.346;2023-05-29T08:35:15;23.70;43.70
34776;DHT22;20989;52.566;13.346;2023-05-29T08:38:16;23.80;43.00
34776;DHT22;20989;52.566;13.346;2023-05-29T08:41:41;23.70;42.10
34776;DHT22;20989;52.566;13.346;2023-05-29T08:44:42;23.70;39.90
34776;DHT22;20989;52.566;13.346;2023-05-29T08:47:49;23.70;40.00
34776;DHT22;20989;52.566;13.346;2023-05-29T08:50:53;23.80;41.10
34776;DHT22;20989;52.566;13.346;2023-05-29T08:53:56;23.80;41.10
34776;DHT22;20989;52.566;13.346;2023-05-29T08:56:56;23.80;41.30
34776;DHT22;20989;52.566;13.346;2023-05-29T08:59:59;23.90;41.40
34776;DHT22;20989;52.566;13.346;2023-05-29T09:03:00;23.90;41.50
34776;DHT22;20989;52.566;13.346;2023-05-29T09:06:01;23.90;41.60
34776;DHT22;20989;52.566;13.346;2023-05-29T09:09:04;24.00;41.60
34776;DHT22;20989;52.566;13.346;2023-05-29T09:12:05;24.00;41.70
34776;DHT22;20989;52.566;13.346;2023-05-29T09:15:19;24.00;41.90
34776;DHT22;20989;52.566;13.346;2023-05-29T09:18:21;24.00;41.80
34776;DHT22;20989;52.566;13.346;2023-05-29T09:21:27;24.00;41.90
34776;DHT22;20989;52.566;13.346;2023-05-29T09:24:28;24.00;41.90
34776;DHT22;20989;52.566;13.346;2023-05-29T09:27:29;24.00;41.90
34776;DHT22;20989;52.566;13.346;2023-05-29T09:30:41;24.00;42.00
34776;DHT22;20989;52.566;13.346;2023-05-29T09:33:49;24.00;41.90
34776;DHT22;20989;52.566;13.346;2023-05-29T09:36:50;24.10;42.10
34776;DHT22;20989;52.566;13.346;2023-05-29T09:39:52;24.10;42.00
34776;DHT22;20989;52.566;13.346;2023-05-29T09:42:52;24.10;42.20
34776;DHT22;20989;52.566;13.346;2023-05-29T09:45:54;24.20;42.20
34776;DHT22;20989;52.566;13.346;2023-05-29T09:49:01;24.20;42.20
34776;DHT22;20989;52.566;13.346;2023-05-29T09:52:03;24.20;42.20
34776;DHT22;20989;52.566;13.346;2023-05-29T09:55:04;24.20;42.30
34776;DHT22;20989;52.566;13.346;2023-05-29T09:58:06;24.20;42.30
34776;DHT22;20989;52.566;13.346;2023-05-29T10:01:08;24.20;42.30
34776;DHT22;20989;52.566;13.346;2023-05-29T10:04:13;24.20;42.30
34776;DHT22;20989;52.566;13.346;2023-05-29T10:07:27;24.20;42.40
34776;DHT22;20989;52.566;13.346;2023-05-29T10:10:29;24.20;42.30
34776;DHT22;20989;52.566;13.346;2023-05-29T10:13:36;24.20;42.20
34776;DHT22;20989;52.566;13.346;2023-05-29T10:16:42;24.20;42.40
34776;DHT22;20989;52.566;13.346;2023-05-29T10:19:44;24.20;42.40
34776;DHT22;20989;52.566;13.346;2023-05-29T10:22:49;24.30;42.50
34776;DHT22;20989;52.566;13.346;2023-05-29T10:25:52;24.30;42.50
34776;DHT22;20989;52.566;13.346;2023-05-29T10:29:16;24.30;42.50
34776;DHT22;20989;52.566;13.346;2023-05-29T10:32:32;24.30;42.60
34776;DHT22;20989;52.566;13.346;2023-05-29T10:35:51;24.30;42.50
34776;DHT22;20989;52.566;13.346;2023-05-29T10:38:53;24.40;42.60
34776;DHT22;20989;52.566;13.346;2023-05-29T10:41:54;24.40;42.70
34776;DHT22;20989;52.566;13.346;2023-05-29T10:44:58;24.30;42.70
34776;DHT22;20989;52.566;13.346;2023-05-29T10:51:31;24.40;42.70
34776;DHT22;20989;52.566;13.346;2023-05-29T10:54:40;24.30;42.60
34776;DHT22;20989;52.566;13.346;2023-05-29T10:57:46;24.40;42.70
34776;DHT22;20989;52.566;13.346;2023-05-29T11:00:49;24.40;42.80
34776;DHT22;20989;52.566;13.346;2023-05-29T11:03:49;24.40;43.40
34776;DHT22;20989;52.566;13.346;2023-05-29T11:06:52;24.40;42.90
34776;DHT22;20989;52.566;13.346;2023-05-29T11:09:53;24.40;42.90
34776;DHT22;20989;52.566;13.346;2023-05-29T11:12:57;24.40;42.90
34776;DHT22;20989;52.566;13.346;2023-05-29T11:19:12;24.40;42.80
34776;DHT22;20989;52.566;13.346;2023-05-29T11:22:20;24.40;42.90
34776;DHT22;20989;52.566;13.346;2023-05-29T11:25:24;24.40;42.80
34776;DHT22;20989;52.566;13.346;2023-05-29T11:28:27;24.40;43.40
34776;DHT22;20989;52.566;13.346;2023-05-29T11:31:28;24.50;43.60
34776;DHT22;20989;52.566;13.346;2023-05-29T11:34:32;24.40;43.20
34776;DHT22;20989;52.566;13.346;2023-05-29T11:37:34;24.40;43.20
34776;DHT22;20989;52.566;13.346;2023-05-29T11:40:36;24.50;43.30
34776;DHT22;20989;52.566;13.346;2023-05-29T11:43:38;24.50;43.20
34776;DHT22;20989;52.566;13.346;2023-05-29T11:46:38;24.40;43.00
34776;DHT22;20989;52.566;13.346;2023-05-29T11:49:40;24.40;43.40
34776;DHT22;20989;52.566;13.346;2023-05-29T11:52:47;24.40;42.90
34776;DHT22;20989;52.566;13.346;2023-05-29T11:55:48;24.40;43.00
34776;DHT22;20989;52.566;13.346;2023-05-29T11:58:49;24.40;42.90
34776;DHT22;20989;52.566;13.346;2023-05-29T12:01:50;24.50;42.90
34776;DHT22;20989;52.566;13.346;2023-05-29T12:05:04;24.50;41.90
34776;DHT22;20989;52.566;13.346;2023-05-29T12:08:05;24.40;41.50
34776;DHT22;20989;52.566;13.346;2023-05-29T12:11:06;24.30;41.10
34776;DHT22;20989;52.566;13.346;2023-05-29T12:14:07;24.30;41.10
34776;DHT22;20989;52.566;13.346;2023-05-29T12:17:07;24.30;40.20
34776;DHT22;20989;52.566;13.346;2023-05-29T12:20:11;24.30;39.70
34776;DHT22;20989;52.566;13.346;2023-05-29T12:23:12;24.30;40.50
34776;DHT22;20989;52.566;13.346;2023-05-29T12:26:13;24.40;39.70
34776;DHT22;20989;52.566;13.346;2023-05-29T12:29:14;24.30;40.00
34776;DHT22;20989;52.566;13.346;2023-05-29T12:32:15;24.30;40.00
34776;DHT22;20989;52.566;13.346;2023-05-29T12:35:27;24.30;38.80
34776;DHT22;20989;52.566;13.346;2023-05-29T12:38:27;24.40;39.30
34776;DHT22;20989;52.566;13.346;2023-05-29T12:41:32;24.40;39.00
34776;DHT22;20989;52.566;13.346;2023-05-29T12:44:33;24.30;39.40
34776;DHT22;20989;52.566;13.346;2023-05-29T12:47:34;24.30;38.90
34776;DHT22;20989;52.566;13.346;2023-05-29T12:50:38;24.30;38.80
34776;DHT22;20989;52.566;13.346;2023-05-29T12:53:39;24.30;38.90
34776;DHT22;20989;52.566;13.346;2023-05-29T12:56:40;24.30;38.70
34776;DHT22;20989;52.566;13.346;2023-05-29T12:59:41;24.30;39.40
34776;DHT22;20989;52.566;13.346;2023-05-29T13:02:42;24.20;38.40
34776;DHT22;20989;52.566;13.346;2023-05-29T13:05:43;24.20;38.60
34776;DHT22;20989;52.566;13.346;2023-05-29T13:08:44;24.30;39.00
34776;DHT22;20989;52.566;13.346;2023-05-29T13:11:44;24.30;38.20
34776;DHT22;20989;52.566;13.346;2023-05-29T13:14:45;24.30;39.40
34776;DHT22;20989;52.566;13.346;2023-05-29T13:17:46;24.30;39.00
34776;DHT22;20989;52.566;13.346;2023-05-29T13:20:47;24.30;38.90
34776;DHT22;20989;52.566;13.346;2023-05-29T13:23:48;24.20;39.10
34776;DHT22;20989;52.566;13.346;2023-05-29T13:26:48;24.20;38.60
34776;DHT22;20989;52.566;13.346;2023-05-29T13:29:51;24.30;38.90
34776;DHT22;20989;52.566;13.346;2023-05-29T13:32:53;24.20;38.60
34776;DHT22;20989;52.566;13.346;2023-05-29T13:35:53;24.20;38.30
34776;DHT22;20989;52.566;13.346;2023-05-29T13:38:54;24.20;38.60
34776;DHT22;20989;52.566;13.346;2023-05-29T13:41:55;24.20;38.60
34776;DHT22;20989;52.566;13.346;2023-05-29T13:44:56;24.20;38.50
34776;DHT22;20989;52.566;13.346;2023-05-29T13:47:56;24.30;38.50
34776;DHT22;20989;52.566;13.346;2023-05-29T13:50:57;24.20;37.50
34776;DHT22;20989;52.566;13.346;2023-05-29T13:53:58;24.30;37.80
34776;DHT22;20989;52.566;13.346;2023-05-29T13:56:59;24.20;38.10
34776;DHT22;20989;52.566;13.346;2023-05-29T14:00:00;24.20;37.70
34776;DHT22;20989;52.566;13.346;2023-05-29T14:03:02;24.20;37.20
34776;DHT22;20989;52.566;13.346;2023-05-29T14:06:03;24.20;37.90
34776;DHT22;20989;52.566;13.346;2023-05-29T14:09:05;24.20;38.00
34776;DHT22;20989;52.566;13.346;2023-05-29T14:12:10;24.20;37.00
34776;DHT22;20989;52.566;13.346;2023-05-29T14:15:11;24.20;37.60
34776;DHT22;20989;52.566;13.346;2023-05-29T14:18:11;24.20;37.80
34776;DHT22;20989;52.566;13.346;2023-05-29T14:21:12;24.20;37.80
34776;DHT22;20989;52.566;13.346;2023-05-29T14:24:13;24.20;37.40
34776;DHT22;20989;52.566;13.346;2023-05-29T14:27:14;24.30;37.60
34776;DHT22;20989;52.566;13.346;2023-05-29T14:30:15;24.20;37.60
34776;DHT22;20989;52.566;13.346;2023-05-29T14:33:16;24.20;37.30
34776;DHT22;20989;52.566;13.346;2023-05-29T14:36:17;24.20;37.10
34776;DHT22;20989;52.566;13.346;2023-05-29T14:39:17;24.20;37.30
34776;DHT22;20989;52.566;13.346;2023-05-29T14:42:18;24.20;37.60
34776;DHT22;20989;52.566;13.346;2023-05-29T14:45:19;24.20;37.60
34776;DHT22;20989;52.566;13.346;2023-05-29T14:48:20;24.30;37.60
34776;DHT22;20989;52.566;13.346;2023-05-29T14:51:21;24.20;37.00
34776;DHT22;20989;52.566;13.346;2023-05-29T14:54:23;24.20;37.50
34776;DHT22;20989;52.566;13.346;2023-05-29T14:57:24;24.20;37.40
34776;DHT22;20989;52.566;13.346;2023-05-29T15:00:25;24.20;37.00
34776;DHT22;20989;52.566;13.346;2023-05-29T15:03:26;24.20;37.70
34776;DHT22;20989;52.566;13.346;2023-05-29T15:06:27;24.20;36.90
34776;DHT22;20989;52.566;13.346;2023-05-29T15:09:29;24.20;36.60
34776;DHT22;20989;52.566;13.346;2023-05-29T15:12:32;24.20;36.90
34776;DHT22;20989;52.566;13.346;2023-05-29T15:15:33;24.30;36.70
34776;DHT22;20989;52.566;13.346;2023-05-29T15:18:34;24.30;36.80
34776;DHT22;20989;52.566;13.346;2023-05-29T15:21:34;24.40;36.90
34776;DHT22;20989;52.566;13.346;2023-05-29T15:24:35;24.40;36.80
34776;DHT22;20989;52.566;13.346;2023-05-29T15:27:36;24.40;37.20
34776;DHT22;20989;52.566;13.346;2023-05-29T15:30:36;24.40;36.80
34776;DHT22;20989;52.566;13.346;2023-05-29T15:33:37;24.40;36.70
34776;DHT22;20989;52.566;13.346;2023-05-29T15:36:40;24.30;37.00
34776;DHT22;20989;52.566;13.346;2023-05-29T15:39:41;24.30;37.00
34776;DHT22;20989;52.566;13.346;2023-05-29T15:42:42;24.30;37.30
34776;DHT22;20989;52.566;13.346;2023-05-29T15:45:43;24.40;36.90
34776;DHT22;20989;52.566;13.346;2023-05-29T15:48:44;24.30;37.00
34776;DHT22;20989;52.566;13.346;2023-05-29T15:51:44;24.30;36.50
34776;DHT22;20989;52.566;13.346;2023-05-29T15:54:45;24.30;36.60
34776;DHT22;20989;52.566;13.346;2023-05-29T15:57:46;24.30;36.90
34776;DHT22;20989;52.566;13.346;2023-05-29T16:00:48;24.20;36.40
34776;DHT22;20989;52.566;13.346;2023-05-29T16:03:49;24.20;36.60
34776;DHT22;20989;52.566;13.346;2023-05-29T16:06:50;24.40;36.90
34776;DHT22;20989;52.566;13.346;2023-05-29T16:09:51;24.40;36.60
34776;DHT22;20989;52.566;13.346;2023-05-29T16:12:53;24.40;36.50
34776;DHT22;20989;52.566;13.346;2023-05-29T16:15:54;24.40;37.00
34776;DHT22;20989;52.566;13.346;2023-05-29T16:18:54;24.30;36.50
34776;DHT22;20989;52.566;13.346;2023-05-29T16:21:55;24.40;37.30
34776;DHT22;20989;52.566;13.346;2023-05-29T16:24:56;24.40;36.70
34776;DHT22;20989;52.566;13.346;2023-05-29T16:27:56;24.40;36.80
34776;DHT22;20989;52.566;13.346;2023-05-29T16:30:57;24.40;36.40
34776;DHT22;20989;52.566;13.346;2023-05-29T16:33:58;24.30;36.60
34776;DHT22;20989;52.566;13.346;2023-05-29T16:36:59;24.30;37.60
34776;DHT22;20989;52.566;13.346;2023-05-29T16:40:00;24.30;37.00
34776;DHT22;20989;52.566;13.346;2023-05-29T16:43:01;24.40;36.70
34776;DHT22;20989;52.566;13.346;2023-05-29T16:46:01;24.40;36.60
34776;DHT22;20989;52.566;13.346;2023-05-29T16:49:06;24.40;36.60
34776;DHT22;20989;52.566;13.346;2023-05-29T16:52:08;24.40;36.80
34776;DHT22;20989;52.566;13.346;2023-05-29T16:55:09;24.30;36.60
34776;DHT22;20989;52.566;13.346;2023-05-29T16:58:10;24.30;37.00
34776;DHT22;20989;52.566;13.346;2023-05-29T17:01:11;24.30;37.00
34776;DHT22;20989;52.566;13.346;2023-05-29T17:04:11;24.30;36.60
34776;DHT22;20989;52.566;13.346;2023-05-29T17:07:12;24.40;37.00
34776;DHT22;20989;52.566;13.346;2023-05-29T17:10:13;24.40;36.90
34776;DHT22;20989;52.566;13.346;2023-05-29T17:13:14;24.40;37.20
34776;DHT22;20989;52.566;13.346;2023-05-29T17:16:16;24.60;38.00
34776;DHT22;20989;52.566;13.346;2023-05-29T17:19:16;24.60;37.80
34776;DHT22;20989;52.566;13.346;2023-05-29T17:22:17;24.70;37.50
34776;DHT22;20989;52.566;13.346;2023-05-29T17:25:54;24.70;37.90
34776;DHT22;20989;52.566;13.346;2023-05-29T17:28:56;24.70;38.20
34776;DHT22;20989;52.566;13.346;2023-05-29T17:31:57;24.80;38.00
34776;DHT22;20989;52.566;13.346;2023-05-29T17:34:58;24.80;38.40
34776;DHT22;20989;52.566;13.346;2023-05-29T17:37:59;24.80;39.00
34776;DHT22;20989;52.566;13.346;2023-05-29T17:41:01;24.70;39.00
34776;DHT22;20989;52.566;13.346;2023-05-29T17:44:01;24.60;37.70
34776;DHT22;20989;52.566;13.346;2023-05-29T17:47:03;24.50;38.40
34776;DHT22;20989;52.566;13.346;2023-05-29T17:50:04;24.50;38.20
34776;DHT22;20989;52.566;13.346;2023-05-29T17:53:05;24.40;38.20
34776;DHT22;20989;52.566;13.346;2023-05-29T17:56:06;24.40;38.60
34776;DHT22;20989;52.566;13.346;2023-05-29T17:59:07;24.40;38.50
34776;DHT22;20989;52.566;13.346;2023-05-29T18:02:08;24.40;38.50
34776;DHT22;20989;52.566;13.346;2023-05-29T18:05:11;24.40;39.10
34776;DHT22;20989;52.566;13.346;2023-05-29T18:08:12;24.40;38.80
34776;DHT22;20989;52.566;13.346;2023-05-29T18:11:12;24.40;39.00
34776;DHT22;20989;52.566;13.346;2023-05-29T18:14:13;24.30;38.50
34776;DHT22;20989;52.566;13.346;2023-05-29T18:17:14;24.30;38.80
34776;DHT22;20989;52.566;13.346;2023-05-29T18:20:15;24.30;39.00
34776;DHT22;20989;52.566;13.346;2023-05-29T18:23:16;24.30;38.90
34776;DHT22;20989;52.566;13.346;2023-05-29T18:26:17;24.30;39.00
34776;DHT22;20989;52.566;13.346;2023-05-29T18:29:18;24.20;38.90
34776;DHT22;20989;52.566;13.346;2023-05-29T18:32:22;24.20;39.00
34776;DHT22;20989;52.566;13.346;2023-05-29T18:35:22;24.20;39.00
34776;DHT22;20989;52.566;13.346;2023-05-29T18:38:23;24.20;39.10
34776;DHT22;20989;52.566;13.346;2023-05-29T18:41:24;24.20;39.00
34776;DHT22;20989;52.566;13.346;2023-05-29T18:44:24;24.20;39.20
34776;DHT22;20989;52.566;13.346;2023-05-29T18:47:26;24.20;38.80
34776;DHT22;20989;52.566;13.346;2023-05-29T18:50:26;24.20;39.20
34776;DHT22;20989;52.566;13.346;2023-05-29T18:53:27;24.20;39.30
34776;DHT22;20989;52.566;13.346;2023-05-29T18:56:28;24.20;39.30
34776;DHT22;20989;52.566;13.346;2023-05-29T18:59:29;24.10;38.80
34776;DHT22;20989;52.566;13.346;2023-05-29T19:02:30;24.10;39.40
34776;DHT22;20989;52.566;13.346;2023-05-29T19:05:30;24.10;39.60
34776;DHT22;20989;52.566;13.346;2023-05-29T19:08:31;24.10;39.40
34776;DHT22;20989;52.566;13.346;2023-05-29T19:11:32;24.10;39.60
34776;DHT22;20989;52.566;13.346;2023-05-29T19:14:34;24.10;39.70